Time;durP1;ratioP1;P1;durP2;ratioP2;P2;SDS_P1;SDS_P2;PMS_P1;PMS_P2;Temp;Humidity;BMP_temperature;BMP_pressure;BME280_temperature;BME280_humidity;BME280_pressure;Samples;Min_cycle;Max_cycle;Signal;HPM_P1;HPM_P2
2021/06/15 00:01:09;;;;;;;13.70;9.00;;;21.30;65.70;;;;;;5095880;28;20024;-82
2021/06/15 00:03:35;;;;;;;15.77;8.88;;;21.20;66.00;;;;;;5085012;28;20036;-81
2021/06/15 00:06:00;;;;;;;12.23;9.00;;;21.20;66.20;;;;;;5075758;28;20519;-81
2021/06/15 00:08:26;;;;;;;16.10;8.90;;;21.20;66.40;;;;;;5075545;28;20106;-81
2021/06/15 00:10:52;;;;;;;14.63;9.75;;;21.10;66.50;;;;;;5075579;28;20052;-77
2021/06/15 00:13:18;;;;;;;16.23;9.75;;;21.10;66.60;;;;;;5080125;28;20024;-77
2021/06/15 00:15:47;;;;;;;13.00;9.90;;;21.10;66.70;;;;;;5090371;28;20577;-77
2021/06/15 00:18:15;;;;;;;16.17;9.90;;;21.10;66.80;;;;;;5084175;28;20017;-77
2021/06/15 00:20:41;;;;;;;14.35;9.90;;;21.00;67.00;;;;;;5093909;28;20111;-77
2021/06/15 00:23:07;;;;;;;14.30;10.57;;;21.00;67.20;;;;;;5080293;28;20031;-77
2021/06/15 00:25:32;;;;;;;19.13;10.68;;;20.90;67.40;;;;;;5077076;28;20032;-77
2021/06/15 00:27:58;;;;;;;16.00;10.80;;;20.90;67.50;;;;;;5111906;28;20035;-77
2021/06/15 00:30:24;;;;;;;15.95;10.13;;;20.90;67.80;;;;;;5089021;28;20028;-77
2021/06/15 00:32:51;;;;;;;14.82;9.93;;;20.80;67.90;;;;;;5112338;28;20028;-77
2021/06/15 00:35:18;;;;;;;18.10;11.43;;;20.80;68.00;;;;;;5094919;28;20105;-77
2021/06/15 00:37:44;;;;;;;18.48;10.90;;;20.80;68.20;;;;;;5093225;28;20387;-77
2021/06/15 00:40:10;;;;;;;15.77;10.70;;;20.70;68.20;;;;;;5102180;28;20035;-77
2021/06/15 00:42:36;;;;;;;15.35;10.18;;;20.70;68.50;;;;;;5111941;28;20456;-77
2021/06/15 00:45:04;;;;;;;19.40;11.25;;;20.60;68.60;;;;;;5114600;28;20046;-76
2021/06/15 00:47:30;;;;;;;14.80;10.10;;;20.60;68.90;;;;;;5082441;28;20440;-77
2021/06/15 00:49:55;;;;;;;16.83;10.98;;;20.50;69.60;;;;;;5096053;28;20493;-77
2021/06/15 00:52:22;;;;;;;18.30;11.57;;;20.50;69.20;;;;;;5088993;28;20069;-77
2021/06/15 00:54:49;;;;;;;19.58;11.07;;;20.50;70.00;;;;;;5097541;28;20020;-77
2021/06/15 00:57:21;;;;;;;18.38;10.93;;;20.50;69.50;;;;;;5094980;28;20017;-77
2021/06/15 00:59:47;;;;;;;19.58;11.88;;;20.50;69.70;;;;;;5109874;28;20023;-77
2021/06/15 01:02:13;;;;;;;19.48;10.85;;;20.40;69.90;;;;;;5079051;28;20032;-77
2021/06/15 01:04:39;;;;;;;16.70;11.35;;;20.40;70.00;;;;;;5062576;28;20062;-77
2021/06/15 01:07:29;;;;;;;17.58;11.43;;;20.30;70.20;;;;;;5093198;28;20040;-76
2021/06/15 01:10:09;;;;;;;17.58;11.07;;;20.30;70.40;;;;;;5075989;28;20027;-77
2021/06/15 01:12:49;;;;;;;20.15;11.68;;;20.30;70.70;;;;;;5094100;28;20413;-77
2021/06/15 01:15:35;;;;;;;21.05;12.48;;;20.20;70.80;;;;;;5094051;28;20116;-76
2021/06/15 01:18:06;;;;;;;14.05;11.00;;;20.20;71.30;;;;;;5102060;28;20103;-77
2021/06/15 01:20:41;;;;;;;16.73;11.63;;;20.10;71.40;;;;;;5094203;28;20052;-77
2021/06/15 01:23:28;;;;;;;19.65;13.05;;;20.10;71.50;;;;;;5095188;28;20421;-77
2021/06/15 01:26:13;;;;;;;15.38;12.25;;;20.10;71.60;;;;;;5088065;28;20028;-77
2021/06/15 01:28:50;;;;;;;14.32;11.20;;;20.10;71.80;;;;;;5100341;28;20537;-77
2021/06/15 01:31:25;;;;;;;19.23;12.55;;;20.00;71.90;;;;;;5107932;28;20074;-77
2021/06/15 01:33:54;;;;;;;20.27;13.77;;;20.00;72.20;;;;;;5104230;28;20032;-77
2021/06/15 01:36:24;;;;;;;18.60;13.45;;;20.00;72.40;;;;;;5093908;28;20473;-77
2021/06/15 01:38:57;;;;;;;16.42;11.88;;;19.90;72.70;;;;;;5093897;28;20046;-77
2021/06/15 01:41:30;;;;;;;17.98;12.95;;;19.90;72.90;;;;;;5105412;28;20061;-76
2021/06/15 01:44:02;;;;;;;22.10;13.73;;;19.80;73.10;;;;;;5105992;28;20382;-77
2021/06/15 01:46:31;;;;;;;18.60;12.95;;;19.80;73.30;;;;;;5104662;28;20027;-76
2021/06/15 01:49:04;;;;;;;19.30;14.05;;;19.80;73.30;;;;;;5109281;28;20114;-77
2021/06/15 01:51:32;;;;;;;19.20;13.30;;;19.70;73.50;;;;;;5124014;27;20044;-76
2021/06/15 01:54:09;;;;;;;24.38;14.05;;;19.70;73.70;;;;;;5095041;28;20024;-77
2021/06/15 01:56:40;;;;;;;18.65;13.43;;;19.70;73.90;;;;;;5113168;28;20067;-77
2021/06/15 01:59:10;;;;;;;22.02;14.00;;;19.70;74.10;;;;;;5094932;28;20024;-76
2021/06/15 02:01:40;;;;;;;21.02;14.30;;;19.70;74.10;;;;;;5106900;28;20107;-77
2021/06/15 02:04:06;;;;;;;20.92;13.85;;;19.60;74.20;;;;;;5094613;28;20027;-77
2021/06/15 02:06:34;;;;;;;20.67;13.15;;;19.70;74.30;;;;;;5094199;28;20031;-76
2021/06/15 02:09:05;;;;;;;22.15;14.77;;;19.70;74.30;;;;;;5104249;28;20477;-76
2021/06/15 02:11:32;;;;;;;22.92;15.02;;;19.60;74.40;;;;;;5105004;28;20036;-76
2021/06/15 02:14:01;;;;;;;22.02;14.70;;;19.60;74.60;;;;;;5088164;28;20042;-76
2021/06/15 02:16:27;;;;;;;17.98;14.48;;;19.50;74.90;;;;;;5101525;28;20058;-76
2021/06/15 02:18:55;;;;;;;21.77;14.13;;;19.50;75.10;;;;;;5093348;28;20088;-76
2021/06/15 02:21:21;;;;;;;23.48;14.45;;;19.50;75.30;;;;;;5059611;28;20109;-76
2021/06/15 02:23:49;;;;;;;22.25;16.65;;;19.40;75.30;;;;;;5100232;28;20055;-76
2021/06/15 02:26:17;;;;;;;21.63;16.08;;;19.40;75.50;;;;;;5079380;28;20046;-76
2021/06/15 02:28:43;;;;;;;22.80;15.73;;;19.40;75.60;;;;;;5109231;28;20023;-76
2021/06/15 02:31:14;;;;;;;23.20;16.10;;;19.40;75.90;;;;;;5101453;28;20028;-76
2021/06/15 02:33:45;;;;;;;27.40;17.13;;;19.30;76.10;;;;;;5099405;28;20042;-76
2021/06/15 02:36:17;;;;;;;22.67;16.17;;;19.30;76.40;;;;;;5097628;28;20059;-76
2021/06/15 02:38:53;;;;;;;24.40;15.68;;;19.20;76.50;;;;;;5097109;28;20396;-76
2021/06/15 02:41:20;;;;;;;22.95;16.00;;;19.20;76.30;;;;;;5098581;28;20531;-76
2021/06/15 02:43:49;;;;;;;23.20;15.73;;;19.20;76.80;;;;;;5099095;28;20110;-76
2021/06/15 02:46:16;;;;;;;23.63;16.35;;;19.20;77.00;;;;;;5099596;28;20023;-76
2021/06/15 02:48:47;;;;;;;25.55;17.20;;;19.10;77.10;;;;;;5099184;28;20040;-76
2021/06/15 02:51:13;;;;;;;21.50;16.33;;;19.10;77.30;;;;;;5099924;28;20036;-76
2021/06/15 02:53:52;;;;;;;27.83;16.50;;;19.10;77.30;;;;;;5098268;28;20050;-76
2021/06/15 02:56:21;;;;;;;23.50;16.80;;;19.10;77.40;;;;;;5097055;28;20404;-76
2021/06/15 02:58:47;;;;;;;23.08;16.67;;;19.10;77.40;;;;;;5100533;28;20384;-76
2021/06/15 03:01:13;;;;;;;25.02;16.55;;;19.10;77.40;;;;;;5097980;28;20032;-76
2021/06/15 03:03:39;;;;;;;25.98;16.98;;;19.10;77.40;;;;;;5080669;28;20028;-76
2021/06/15 03:06:06;;;;;;;25.40;17.27;;;19.10;77.40;;;;;;5081805;28;21686;-76
2021/06/15 03:08:34;;;;;;;28.70;18.20;;;19.10;77.50;;;;;;5099890;28;20029;-76
2021/06/15 03:11:04;;;;;;;21.60;15.75;;;19.10;77.70;;;;;;5097435;28;20099;-76
2021/06/15 03:13:44;;;;;;;27.35;18.10;;;19.00;77.90;;;;;;5098672;28;20023;-76
2021/06/15 03:16:14;;;;;;;29.95;17.33;;;19.00;78.20;;;;;;5102122;28;20020;-76
2021/06/15 03:18:51;;;;;;;22.25;16.70;;;18.90;78.20;;;;;;5084798;28;20028;-76
2021/06/15 03:21:24;;;;;;;26.08;16.92;;;18.80;78.50;;;;;;5108635;28;20030;-76
2021/06/15 03:23:57;;;;;;;21.95;16.73;;;18.80;78.70;;;;;;5109124;28;20094;-76
2021/06/15 03:26:52;;;;;;;30.98;18.15;;;18.80;78.70;;;;;;5102933;28;20038;-76
2021/06/15 03:29:21;;;;;;;20.73;16.83;;;18.70;78.80;;;;;;5070146;28;20035;-76
2021/06/15 03:31:52;;;;;;;20.27;15.90;;;18.80;78.80;;;;;;5083448;28;20427;-76
2021/06/15 03:34:25;;;;;;;20.13;15.25;;;18.70;78.90;;;;;;5120189;27;20476;-76
2021/06/15 03:36:52;;;;;;;22.67;16.00;;;18.80;78.80;;;;;;5084894;28;20725;-76
2021/06/15 03:39:20;;;;;;;23.33;15.93;;;18.80;78.80;;;;;;5103719;28;20016;-76
2021/06/15 03:41:46;;;;;;;25.40;17.02;;;18.80;78.70;;;;;;5084344;28;20032;-76
2021/06/15 03:44:13;;;;;;;21.58;15.93;;;18.80;78.80;;;;;;5084237;28;20044;-76
2021/06/15 03:46:41;;;;;;;20.33;16.15;;;18.80;78.80;;;;;;5101822;28;20380;-76
2021/06/15 03:49:10;;;;;;;20.63;16.23;;;18.80;78.70;;;;;;5103842;28;20108;-76
2021/06/15 03:51:41;;;;;;;23.70;17.00;;;18.80;78.80;;;;;;5117310;27;20513;-76
2021/06/15 03:54:09;;;;;;;25.98;15.93;;;18.80;78.80;;;;;;5101128;28;20047;-76
2021/06/15 03:56:49;;;;;;;22.63;15.20;;;18.80;78.90;;;;;;5102706;28;20020;-76
2021/06/15 03:59:28;;;;;;;23.50;15.98;;;18.70;79.10;;;;;;5101184;28;20210;-76
2021/06/15 04:02:00;;;;;;;20.05;15.10;;;18.70;79.30;;;;;;5102328;28;20024;-76
2021/06/15 04:04:29;;;;;;;21.02;15.50;;;18.70;79.30;;;;;;5083441;28;20088;-76
2021/06/15 04:06:55;;;;;;;;;;;18.60;79.30;;;;;;5104089;28;20673;-76
2021/06/15 04:09:25;;;;;;;22.48;14.65;;;18.70;79.00;;;;;;5102223;28;19954;-76
2021/06/15 04:11:53;;;;;;;24.98;14.70;;;18.60;79.30;;;;;;5104556;28;20487;-75
2021/06/15 04:14:20;;;;;;;22.77;16.23;;;18.60;79.30;;;;;;5102584;28;20023;-76
2021/06/15 04:16:47;;;;;;;24.00;15.35;;;18.60;79.30;;;;;;5083921;28;20110;-75
2021/06/15 04:19:17;;;;;;;18.67;14.48;;;18.50;79.40;;;;;;5101153;28;20028;-75
2021/06/15 04:21:45;;;;;;;25.55;14.93;;;18.50;79.70;;;;;;5081713;28;20387;-80
2021/06/15 04:24:14;;;;;;;19.48;14.85;;;18.50;80.00;;;;;;5100787;28;20075;-80
2021/06/15 04:26:40;;;;;;;24.17;14.52;;;18.40;80.00;;;;;;5104242;28;20043;-80
2021/06/15 04:29:07;;;;;;;19.50;14.40;;;18.40;80.20;;;;;;5111500;28;20110;-80
2021/06/15 04:31:35;;;;;;;26.38;16.75;;;18.40;80.30;;;;;;5101132;28;20093;-80
2021/06/15 04:34:03;;;;;;;24.20;14.27;;;18.40;80.50;;;;;;5100137;28;20061;-80
2021/06/15 04:36:31;;;;;;;20.52;15.65;;;18.40;80.50;;;;;;5105139;28;20039;-80
2021/06/15 04:39:05;;;;;;;18.92;14.02;;;18.40;80.80;;;;;;5087009;28;20177;-80
2021/06/15 04:41:37;;;;;;;24.00;16.00;;;18.30;80.80;;;;;;5103780;28;20476;-80
2021/06/15 04:44:04;;;;;;;22.25;14.85;;;18.30;81.00;;;;;;5082076;28;20032;-80
2021/06/15 04:47:09;;;;;;;24.02;15.20;;;18.30;80.90;;;;;;5075318;28;20606;-80
2021/06/15 04:49:45;;;;;;;20.23;12.93;;;18.30;81.00;;;;;;5050236;28;20044;-80
2021/06/15 04:52:13;;;;;;;18.77;13.60;;;18.30;81.00;;;;;;5091847;28;20036;-80
2021/06/15 04:54:45;;;;;;;18.00;13.10;;;18.30;80.90;;;;;;5096575;28;20491;-80
2021/06/15 04:57:14;;;;;;;14.15;11.77;;;18.30;80.80;;;;;;5115139;28;20506;-80
2021/06/15 04:59:40;;;;;;;;;;;18.30;80.60;;;;;;5115557;28;20020;-80
2021/06/15 05:02:07;;;;;;;23.10;12.98;;;18.30;80.20;;;;;;5094718;28;20377;-80
2021/06/15 05:04:35;;;;;;;22.60;13.27;;;18.40;80.40;;;;;;5084375;28;20070;-80
2021/06/15 05:07:02;;;;;;;20.77;12.90;;;18.40;80.30;;;;;;5109540;28;20028;-80
2021/06/15 05:09:30;;;;;;;19.73;11.98;;;18.40;80.20;;;;;;5095643;28;20054;-81
2021/06/15 05:11:57;;;;;;;20.75;12.00;;;18.40;80.50;;;;;;5113037;28;20051;-80
2021/06/15 05:14:28;;;;;;;20.10;12.50;;;18.40;80.30;;;;;;5080735;28;20530;-80
2021/06/15 05:16:55;;;;;;;14.95;11.50;;;18.50;80.10;;;;;;5106534;28;20024;-81
2021/06/15 05:19:24;;;;;;;16.33;11.43;;;18.50;79.90;;;;;;5094261;28;20103;-81
2021/06/15 05:22:02;;;;;;;15.57;11.35;;;18.60;79.90;;;;;;5104925;28;20051;-81
2021/06/15 05:25:03;;;;;;;16.65;11.73;;;18.60;79.60;;;;;;5113719;28;20040;-80
2021/06/15 05:27:32;;;;;;;17.13;11.15;;;18.60;79.30;;;;;;5012351;28;20426;-81
2021/06/15 05:29:59;;;;;;;22.08;11.02;;;18.60;79.30;;;;;;5095545;28;20513;-74
2021/06/15 05:32:25;;;;;;;18.10;12.13;;;18.60;79.40;;;;;;5113717;28;20105;-74
2021/06/15 05:34:51;;;;;;;15.07;10.90;;;18.60;79.60;;;;;;5109240;28;20076;-74
2021/06/15 05:37:18;;;;;;;16.70;10.98;;;18.70;79.30;;;;;;5088132;28;20028;-73
2021/06/15 05:39:44;;;;;;;19.95;10.75;;;18.70;79.10;;;;;;5095949;28;20107;-74
2021/06/15 05:42:11;;;;;;;18.88;11.05;;;18.80;78.90;;;;;;5110893;28;20024;-74
2021/06/15 05:44:37;;;;;;;19.30;10.23;;;18.80;78.60;;;;;;5113582;28;20024;-74
2021/06/15 05:47:03;;;;;;;16.80;10.85;;;18.90;78.50;;;;;;5109307;28;20360;-76
2021/06/15 05:49:29;;;;;;;16.95;10.18;;;19.00;78.20;;;;;;5105360;28;20549;-76
2021/06/15 05:52:02;;;;;;;17.77;10.95;;;19.10;78.00;;;;;;5093705;28;20488;-75
2021/06/15 05:54:28;;;;;;;17.30;9.70;;;19.10;77.40;;;;;;5100664;28;20076;-75
2021/06/15 05:56:53;;;;;;;18.98;10.30;;;19.20;77.20;;;;;;5113659;28;20472;-75
2021/06/15 05:59:19;;;;;;;15.40;9.27;;;19.20;76.70;;;;;;5085860;28;20035;-75
2021/06/15 06:01:45;;;;;;;15.38;9.00;;;19.30;77.00;;;;;;5093538;28;20032;-75
2021/06/15 06:04:13;;;;;;;15.18;9.38;;;19.40;76.90;;;;;;5079035;28;20092;-75
2021/06/15 06:09:23;;;;;;;14.98;9.18;;;19.50;76.50;;;;;;5091083;28;20141;-75
2021/06/15 06:11:48;;;;;;;12.77;9.02;;;19.50;75.80;;;;;;5092706;28;20174;-75
2021/06/15 06:14:14;;;;;;;14.40;9.13;;;19.50;75.30;;;;;;5111480;28;20032;-75
2021/06/15 06:16:42;;;;;;;12.93;8.25;;;19.60;74.70;;;;;;5105942;28;20031;-75
2021/06/15 06:19:13;;;;;;;10.63;8.10;;;19.60;74.40;;;;;;5095799;28;20040;-75
2021/06/15 06:21:38;;;;;;;15.63;7.60;;;19.60;74.20;;;;;;5092848;28;20383;-75
2021/06/15 06:24:06;;;;;;;15.77;7.35;;;19.70;73.90;;;;;;5102950;28;20130;-75
2021/06/15 06:26:32;;;;;;;9.75;7.15;;;19.80;73.60;;;;;;5111966;28;20093;-75
2021/06/15 06:28:58;;;;;;;14.80;6.68;;;19.80;73.60;;;;;;5092894;28;20048;-75
2021/06/15 06:31:24;;;;;;;12.60;7.78;;;20.00;73.30;;;;;;5092733;28;20094;-75
2021/06/15 06:33:50;;;;;;;12.68;7.25;;;20.20;72.70;;;;;;5084618;28;20157;-75
2021/06/15 06:36:16;;;;;;;14.43;7.25;;;20.20;72.10;;;;;;5093645;28;20099;-75
2021/06/15 06:38:48;;;;;;;11.00;6.57;;;20.30;71.90;;;;;;5074831;28;20563;-75
2021/06/15 06:41:14;;;;;;;11.05;7.38;;;20.40;71.70;;;;;;5090936;28;20371;-75
2021/06/15 06:43:40;;;;;;;14.82;7.43;;;20.40;71.50;;;;;;5074804;28;20032;-75
2021/06/15 06:46:05;;;;;;;9.00;7.10;;;20.40;71.40;;;;;;5074840;28;20031;-75
2021/06/15 06:48:31;;;;;;;11.13;6.57;;;20.40;71.80;;;;;;5093047;28;20069;-75
2021/06/15 06:50:57;;;;;;;10.05;6.30;;;20.50;71.30;;;;;;5091070;28;20468;-75
2021/06/15 06:53:22;;;;;;;9.77;6.70;;;20.60;70.90;;;;;;5112352;28;20439;-75
2021/06/15 06:55:48;;;;;;;11.82;6.50;;;20.60;70.10;;;;;;5104384;28;20041;-75
2021/06/15 06:58:14;;;;;;;11.63;5.28;;;20.70;69.90;;;;;;5088647;28;20122;-75
2021/06/15 07:00:39;;;;;;;9.38;6.00;;;20.80;69.90;;;;;;5095395;28;20039;-75
2021/06/15 07:03:05;;;;;;;14.07;6.43;;;21.00;69.70;;;;;;5104952;28;20035;-75
2021/06/15 07:05:31;;;;;;;10.68;6.53;;;21.10;68.70;;;;;;5101497;28;20023;-75
2021/06/15 07:07:56;;;;;;;10.18;5.95;;;21.00;67.80;;;;;;5116913;28;20039;-75
2021/06/15 07:10:22;;;;;;;7.20;5.60;;;21.00;68.60;;;;;;5103536;28;20036;-74
2021/06/15 07:12:49;;;;;;;6.60;4.75;;;21.00;68.40;;;;;;5114073;28;20046;-75
2021/06/15 07:15:15;;;;;;;13.05;5.57;;;21.10;69.30;;;;;;5116647;28;20023;-75
2021/06/15 07:17:41;;;;;;;14.20;5.60;;;21.10;68.10;;;;;;5098378;28;20077;-75
2021/06/15 07:20:08;;;;;;;13.82;5.53;;;21.10;68.10;;;;;;5114936;28;20070;-75
2021/06/15 07:22:34;;;;;;;12.73;6.07;;;21.10;68.00;;;;;;5085852;28;20028;-75
2021/06/15 07:25:00;;;;;;;11.85;5.25;;;21.10;67.50;;;;;;5113928;28;20070;-75
2021/06/15 07:27:26;;;;;;;13.85;5.68;;;21.10;67.10;;;;;;5096856;28;20028;-75
2021/06/15 07:29:51;;;;;;;9.45;5.22;;;21.20;67.10;;;;;;5112849;28;20099;-75
2021/06/15 07:32:17;;;;;;;13.25;4.40;;;21.20;67.00;;;;;;5106082;28;20075;-75
2021/06/15 07:34:43;;;;;;;11.00;4.72;;;21.30;67.10;;;;;;5111559;28;20031;-75
2021/06/15 07:37:09;;;;;;;6.85;4.18;;;21.30;66.40;;;;;;5079276;28;20025;-75
2021/06/15 07:39:35;;;;;;;11.05;4.57;;;21.40;66.70;;;;;;5110277;28;20081;-74
2021/06/15 07:42:00;;;;;;;18.38;5.95;;;21.40;66.70;;;;;;5115068;28;20055;-75
2021/06/15 07:44:26;;;;;;;10.50;3.97;;;21.40;65.80;;;;;;5098300;28;20024;-75
2021/06/15 07:46:54;;;;;;;8.88;4.30;;;21.40;66.40;;;;;;5086085;28;20099;-76
2021/06/15 07:49:21;;;;;;;11.23;4.72;;;21.50;66.10;;;;;;5071916;28;20047;-75
2021/06/15 07:51:46;;;;;;;9.27;4.45;;;21.40;65.30;;;;;;5104060;28;20036;-76
2021/06/15 07:54:12;;;;;;;10.20;4.25;;;21.30;64.90;;;;;;5093417;28;20051;-75
2021/06/15 07:56:38;;;;;;;20.85;4.72;;;21.20;64.80;;;;;;5077819;28;20024;-76
2021/06/15 07:59:03;;;;;;;10.90;4.05;;;21.10;65.60;;;;;;5099862;28;20032;-75
2021/06/15 08:01:29;;;;;;;10.73;5.07;;;21.10;66.10;;;;;;5091847;28;20043;-75
2021/06/15 08:03:55;;;;;;;6.80;3.55;;;21.20;65.90;;;;;;5096241;28;20065;-76
2021/06/15 08:06:20;;;;;;;11.88;3.85;;;21.30;65.80;;;;;;5097604;28;20027;-75
2021/06/15 08:08:46;;;;;;;14.10;4.35;;;21.50;65.90;;;;;;5115232;28;20111;-75
2021/06/15 08:11:12;;;;;;;8.63;4.15;;;21.90;65.10;;;;;;5095359;28;20480;-75
2021/06/15 08:13:37;;;;;;;11.43;4.70;;;22.30;64.20;;;;;;5092297;28;20024;-75
2021/06/15 08:16:04;;;;;;;14.85;3.97;;;22.70;61.70;;;;;;5095239;28;20031;-76
2021/06/15 08:18:29;;;;;;;9.95;4.10;;;22.80;61.70;;;;;;5088504;28;20030;-75
2021/06/15 08:20:56;;;;;;;15.15;4.07;;;22.80;62.00;;;;;;5114980;28;20496;-75
2021/06/15 08:23:23;;;;;;;8.63;3.92;;;23.00;61.40;;;;;;5086795;28;20046;-76
2021/06/15 08:25:49;;;;;;;8.35;3.80;;;23.10;61.10;;;;;;5115558;28;20023;-76
2021/06/15 08:28:15;;;;;;;9.73;3.88;;;23.10;61.60;;;;;;5114686;28;20024;-76
2021/06/15 08:30:41;;;;;;;8.80;4.43;;;23.40;60.20;;;;;;5104242;28;20093;-76
2021/06/15 08:33:08;;;;;;;6.88;4.25;;;23.50;58.90;;;;;;5113584;28;20024;-76
2021/06/15 08:35:34;;;;;;;8.32;4.35;;;23.60;59.00;;;;;;5097024;28;20038;-76
2021/06/15 08:38:00;;;;;;;8.82;4.22;;;23.80;58.60;;;;;;5097086;28;20361;-76
2021/06/15 08:40:26;;;;;;;10.82;3.90;;;23.80;58.30;;;;;;5114357;28;20081;-76
2021/06/15 08:42:52;;;;;;;8.88;4.28;;;24.00;57.80;;;;;;5113299;28;20059;-76
2021/06/15 08:45:19;;;;;;;6.20;3.28;;;23.90;58.00;;;;;;5115177;28;20058;-76
2021/06/15 08:47:48;;;;;;;8.75;3.72;;;23.80;57.40;;;;;;5115089;28;20016;-76
2021/06/15 08:50:15;;;;;;;;;;;24.00;57.50;;;;;;5115018;28;20385;-76
2021/06/15 08:52:42;;;;;;;5.97;2.95;;;24.10;57.60;;;;;;5100597;28;20003;-76
2021/06/15 08:55:08;;;;;;;7.45;2.90;;;24.40;56.50;;;;;;5094624;28;20098;-76
2021/06/15 08:57:36;;;;;;;5.82;2.83;;;24.50;55.00;;;;;;5094579;28;20073;-76
2021/06/15 09:00:04;;;;;;;6.47;2.63;;;24.60;54.90;;;;;;5094429;28;20038;-76
2021/06/15 09:02:30;;;;;;;9.50;2.85;;;24.60;55.40;;;;;;5076540;28;20031;-76
2021/06/15 09:04:55;;;;;;;9.25;3.03;;;24.80;55.10;;;;;;5094450;28;20366;-76
2021/06/15 09:07:21;;;;;;;11.30;3.72;;;24.80;55.00;;;;;;5094334;28;20028;-76
2021/06/15 09:09:49;;;;;;;7.03;3.40;;;25.00;54.30;;;;;;5094079;28;20065;-76
2021/06/15 09:12:18;;;;;;;7.72;3.67;;;25.20;54.90;;;;;;5092939;28;20024;-76
2021/06/15 09:14:53;;;;;;;6.15;3.40;;;25.20;53.90;;;;;;5101868;28;20028;-76
2021/06/15 09:17:28;;;;;;;6.07;3.55;;;25.20;53.50;;;;;;5093964;28;20469;-76
2021/06/15 09:19:56;;;;;;;12.32;3.67;;;25.00;54.00;;;;;;5093998;28;20023;-76
2021/06/15 09:22:31;;;;;;;8.45;3.13;;;24.80;54.40;;;;;;5092415;28;20026;-76
2021/06/15 09:24:57;;;;;;;6.82;3.53;;;24.70;55.40;;;;;;5114236;28;20043;-76
2021/06/15 09:27:32;;;;;;;7.82;3.80;;;24.70;54.90;;;;;;5096131;28;20038;-76
2021/06/15 09:29:59;;;;;;;10.88;4.00;;;24.70;54.10;;;;;;5114397;28;20023;-76
2021/06/15 09:32:35;;;;;;;11.93;3.40;;;24.60;54.00;;;;;;5077985;28;20027;-76
2021/06/15 09:35:13;;;;;;;6.63;3.13;;;24.80;53.10;;;;;;5075728;28;20027;-76
2021/06/15 09:37:56;;;;;;;6.57;2.80;;;24.80;53.00;;;;;;5093968;28;20054;-76
2021/06/15 09:40:26;;;;;;;5.13;3.65;;;24.80;52.90;;;;;;5076452;28;20040;-76
2021/06/15 09:43:00;;;;;;;5.70;3.05;;;24.70;52.90;;;;;;5093591;28;20028;-76
2021/06/15 09:45:28;;;;;;;6.82;3.20;;;24.70;53.40;;;;;;5094487;28;20031;-76
2021/06/15 09:48:14;;;;;;;4.45;2.60;;;24.70;52.30;;;;;;5104681;28;20500;-76
2021/06/15 09:50:42;;;;;;;7.70;2.50;;;24.60;53.00;;;;;;5093383;28;20024;-76
2021/06/15 09:53:27;;;;;;;9.30;3.05;;;24.70;53.30;;;;;;5093577;28;20035;-76
2021/06/15 09:55:53;;;;;;;8.65;2.72;;;24.70;50.30;;;;;;5094658;28;20416;-76
2021/06/15 09:58:38;;;;;;;5.35;2.40;;;24.70;51.10;;;;;;5110452;28;20024;-76
2021/06/15 10:01:04;;;;;;;5.72;2.40;;;24.80;52.00;;;;;;5113760;28;20055;-76
2021/06/15 10:03:31;;;;;;;6.38;2.47;;;25.00;52.00;;;;;;5095609;28;20043;-76
2021/06/15 10:05:56;;;;;;;7.68;3.00;;;25.10;50.50;;;;;;5113357;28;20047;-76
2021/06/15 10:08:44;;;;;;;6.03;2.72;;;25.20;49.70;;;;;;5113808;28;20106;-76
2021/06/15 10:11:10;;;;;;;8.50;2.43;;;25.20;50.90;;;;;;5097585;28;20033;-76
2021/06/15 10:13:38;;;;;;;10.35;3.33;;;25.40;50.80;;;;;;5096526;28;20028;-76
2021/06/15 10:16:04;;;;;;;7.55;2.95;;;25.60;48.70;;;;;;5109559;28;20474;-76
2021/06/15 10:18:32;;;;;;;5.28;2.53;;;25.60;49.70;;;;;;5084170;28;20032;-76
2021/06/15 10:20:58;;;;;;;4.63;1.85;;;25.70;48.80;;;;;;5097279;28;20386;-76
2021/06/15 10:23:24;;;;;;;4.60;1.77;;;25.80;49.10;;;;;;5091772;28;20027;-76
2021/06/15 10:25:50;;;;;;;4.57;1.90;;;25.80;48.20;;;;;;5095350;28;20054;-76
2021/06/15 10:28:15;;;;;;;5.70;1.30;;;25.90;47.60;;;;;;5089964;28;20540;-76
2021/06/15 10:30:43;;;;;;;8.68;2.03;;;25.90;46.00;;;;;;5106862;28;20039;-76
2021/06/15 10:33:23;;;;;;;6.25;1.30;;;26.00;45.30;;;;;;5084075;28;20032;-76
2021/06/15 10:35:55;;;;;;;2.75;1.10;;;26.00;46.50;;;;;;5115944;28;20024;-76
2021/06/15 10:38:29;;;;;;;5.18;1.08;;;26.10;44.30;;;;;;5112865;28;20016;-76
2021/06/15 10:41:02;;;;;;;2.97;1.42;;;26.20;43.60;;;;;;5086126;28;20089;-76
2021/06/15 10:43:35;;;;;;;2.20;1.23;;;26.30;43.70;;;;;;5088932;28;20024;-76
2021/06/15 10:46:01;;;;;;;4.72;1.40;;;26.30;45.30;;;;;;5104409;28;20492;-76
2021/06/15 10:48:29;;;;;;;5.57;1.50;;;26.40;46.00;;;;;;5096535;28;20110;-76
2021/06/15 10:50:57;;;;;;;3.35;1.42;;;26.60;45.90;;;;;;5098161;28;20024;-75
2021/06/15 10:53:35;;;;;;;2.83;1.30;;;26.70;46.60;;;;;;5113496;28;20020;-76
2021/06/15 10:56:12;;;;;;;3.65;1.90;;;26.70;46.60;;;;;;5099047;28;20077;-76
2021/06/15 10:58:44;;;;;;;5.82;1.85;;;26.90;46.50;;;;;;5110079;28;20016;-76
2021/06/15 11:01:14;;;;;;;4.30;1.90;;;26.90;45.30;;;;;;5104547;28;20024;-76
2021/06/15 11:03:46;;;;;;;5.32;2.03;;;26.90;45.10;;;;;;5078402;28;20032;-76
2021/06/15 11:06:13;;;;;;;4.75;2.03;;;26.80;45.20;;;;;;5090362;28;20110;-76
2021/06/15 11:08:39;;;;;;;3.88;1.85;;;26.70;45.90;;;;;;5108937;28;20032;-76
2021/06/15 11:11:14;;;;;;;7.15;1.90;;;26.60;46.30;;;;;;5096397;28;20654;-76
2021/06/15 11:13:51;;;;;;;3.65;1.67;;;26.60;44.80;;;;;;5079266;28;20426;-76
2021/06/15 11:16:27;;;;;;;3.90;1.70;;;26.60;46.20;;;;;;5096345;28;20020;-76
2021/06/15 11:19:11;;;;;;;4.30;1.13;;;26.60;45.70;;;;;;5091061;28;20484;-76
2021/06/15 11:21:48;;;;;;;6.55;1.00;;;26.50;45.10;;;;;;5113880;28;20630;-75
2021/06/15 11:24:49;;;;;;;2.40;1.00;;;26.60;43.30;;;;;;5111169;28;20399;-75
2021/06/15 11:27:32;;;;;;;5.03;1.50;;;26.50;42.70;;;;;;5115669;28;20456;-76
2021/06/15 11:30:10;;;;;;;5.15;1.35;;;26.50;42.30;;;;;;5100744;28;20035;-77
2021/06/15 11:32:36;;;;;;;2.75;1.13;;;26.40;43.70;;;;;;5098801;28;20115;-76
2021/06/15 11:35:02;;;;;;;3.22;0.95;;;26.40;43.40;;;;;;5096753;28;20113;-77
2021/06/15 11:37:37;;;;;;;4.20;1.45;;;26.80;43.90;;;;;;5078345;28;20502;-76
2021/06/15 11:40:18;;;;;;;6.68;1.55;;;27.10;42.70;;;;;;5096356;28;20035;-77
2021/06/15 11:42:55;;;;;;;3.22;1.42;;;27.10;42.80;;;;;;5096380;28;20491;-76
2021/06/15 11:45:32;;;;;;;2.25;1.08;;;27.00;42.70;;;;;;5095990;28;20032;-76
2021/06/15 11:48:19;;;;;;;8.73;1.75;;;27.00;44.30;;;;;;5086443;28;20122;-78
2021/06/15 11:50:51;;;;;;;4.35;1.30;;;27.10;43.40;;;;;;5115377;28;20036;-77
2021/06/15 11:53:19;;;;;;;3.97;1.05;;;27.40;43.00;;;;;;5116193;28;20026;-77
2021/06/15 11:55:54;;;;;;;5.20;1.27;;;27.60;43.20;;;;;;5098100;28;20024;-77
2021/06/15 11:58:21;;;;;;;3.58;1.20;;;27.80;42.10;;;;;;5115794;28;20043;-77
2021/06/15 12:01:03;;;;;;;5.43;1.30;;;27.80;41.90;;;;;;5102410;28;20038;-77
2021/06/15 12:03:35;;;;;;;3.40;1.35;;;27.90;42.20;;;;;;5095574;28;20027;-77
2021/06/15 12:06:01;;;;;;;8.93;1.67;;;28.00;42.50;;;;;;5095555;28;20028;-77
2021/06/15 12:08:32;;;;;;;3.92;1.50;;;28.00;43.00;;;;;;5095490;28;20115;-77
2021/06/15 12:10:59;;;;;;;8.00;1.75;;;27.90;42.90;;;;;;5095462;28;20066;-77
2021/06/15 12:13:32;;;;;;;6.43;1.90;;;27.90;42.20;;;;;;5077422;28;20118;-77
2021/06/15 12:16:16;;;;;;;5.90;1.88;;;27.80;42.50;;;;;;5115881;28;20043;-77
2021/06/15 12:18:53;;;;;;;7.55;1.90;;;27.90;41.50;;;;;;5078697;28;20028;-77
2021/06/15 12:21:28;;;;;;;6.30;1.88;;;27.90;41.40;;;;;;5111141;28;20400;-77
2021/06/15 12:23:55;;;;;;;7.15;1.70;;;27.80;41.70;;;;;;5115297;28;20044;-77
2021/06/15 12:26:35;;;;;;;3.30;1.50;;;27.90;42.20;;;;;;5095243;28;20032;-77
2021/06/15 12:29:19;;;;;;;5.93;1.63;;;27.80;43.60;;;;;;5095188;28;20044;-77
2021/06/15 12:31:46;;;;;;;7.07;1.25;;;27.80;41.90;;;;;;5076908;28;20085;-77
2021/06/15 12:34:13;;;;;;;5.82;1.80;;;27.80;42.50;;;;;;5099221;28;20533;-77
2021/06/15 12:36:46;;;;;;;3.57;1.33;;;27.80;42.00;;;;;;5097540;28;20027;-77
2021/06/15 12:39:15;;;;;;;3.00;1.23;;;27.60;42.30;;;;;;5090173;28;20054;-77
2021/06/15 12:41:53;;;;;;;3.53;1.20;;;27.50;43.30;;;;;;5094965;28;20028;-77
2021/06/15 12:44:23;;;;;;;3.30;1.23;;;27.50;42.90;;;;;;5094800;28;20515;-77
2021/06/15 12:47:01;;;;;;;7.20;1.10;;;27.50;43.60;;;;;;5079261;28;20051;-77
2021/06/15 12:49:27;;;;;;;4.70;1.40;;;27.50;43.20;;;;;;5115199;28;20064;-77
2021/06/15 12:52:03;;;;;;;6.75;1.70;;;27.60;42.10;;;;;;5114995;28;20479;-77
2021/06/15 12:54:31;;;;;;;4.82;1.48;;;27.60;42.30;;;;;;5114990;28;20019;-77